sensor_id;sensor_type;location;lat;lon;timestamp;P1;durP1;ratioP1;P2;durP2;ratioP2
51368;SDS011;37459;51.416;5.502;2022-12-07T00:01:39;15.32;;;9.48;;
51368;SDS011;37459;51.416;5.502;2022-12-07T00:04:07;14.60;;;9.02;;
51368;SDS011;37459;51.416;5.502;2022-12-07T00:06:36;14.32;;;9.07;;
51368;SDS011;37459;51.416;5.502;2022-12-07T00:09:05;13.98;;;9.15;;
51368;SDS011;37459;51.416;5.502;2022-12-07T00:11:33;16.67;;;9.27;;
51368;SDS011;37459;51.416;5.502;2022-12-07T00:14:02;15.30;;;8.70;;
51368;SDS011;37459;51.416;5.502;2022-12-07T00:16:30;17.48;;;9.20;;
51368;SDS011;37459;51.416;5.502;2022-12-07T00:18:58;12.07;;;9.00;;
51368;SDS011;37459;51.416;5.502;2022-12-07T00:21:26;14.98;;;9.30;;
51368;SDS011;37459;51.416;5.502;2022-12-07T00:23:54;14.07;;;8.02;;
51368;SDS011;37459;51.416;5.502;2022-12-07T00:26:22;14.02;;;9.30;;
51368;SDS011;37459;51.416;5.502;2022-12-07T00:28:50;12.57;;;8.57;;
51368;SDS011;37459;51.416;5.502;2022-12-07T00:31:20;10.80;;;8.10;;
51368;SDS011;37459;51.416;5.502;2022-12-07T00:33:48;17.52;;;9.00;;
51368;SDS011;37459;51.416;5.502;2022-12-07T00:36:16;14.95;;;8.85;;
51368;SDS011;37459;51.416;5.502;2022-12-07T00:38:44;11.82;;;8.07;;
51368;SDS011;37459;51.416;5.502;2022-12-07T00:41:11;11.85;;;8.73;;
51368;SDS011;37459;51.416;5.502;2022-12-07T00:43:39;14.70;;;8.25;;
51368;SDS011;37459;51.416;5.502;2022-12-07T00:46:07;12.82;;;7.63;;
51368;SDS011;37459;51.416;5.502;2022-12-07T00:48:36;10.15;;;8.13;;
51368;SDS011;37459;51.416;5.502;2022-12-07T00:51:03;11.52;;;7.97;;
51368;SDS011;37459;51.416;5.502;2022-12-07T00:53:31;11.70;;;7.93;;
51368;SDS011;37459;51.416;5.502;2022-12-07T00:56:04;12.00;;;8.13;;
51368;SDS011;37459;51.416;5.502;2022-12-07T00:58:31;13.45;;;8.18;;
51368;SDS011;37459;51.416;5.502;2022-12-07T01:00:59;12.48;;;7.90;;
51368;SDS011;37459;51.416;5.502;2022-12-07T01:03:26;10.05;;;7.40;;
51368;SDS011;37459;51.416;5.502;2022-12-07T01:05:54;12.25;;;7.78;;
51368;SDS011;37459;51.416;5.502;2022-12-07T01:08:22;13.57;;;7.63;;
51368;SDS011;37459;51.416;5.502;2022-12-07T01:10:56;12.23;;;7.63;;
51368;SDS011;37459;51.416;5.502;2022-12-07T01:13:24;12.40;;;7.38;;
51368;SDS011;37459;51.416;5.502;2022-12-07T01:15:50;10.35;;;7.43;;
51368;SDS011;37459;51.416;5.502;2022-12-07T01:18:17;11.13;;;6.95;;
51368;SDS011;37459;51.416;5.502;2022-12-07T01:20:43;12.55;;;7.97;;
51368;SDS011;37459;51.416;5.502;2022-12-07T01:23:11;13.15;;;8.25;;
51368;SDS011;37459;51.416;5.502;2022-12-07T01:25:38;12.88;;;7.25;;
51368;SDS011;37459;51.416;5.502;2022-12-07T01:28:04;11.63;;;7.80;;
51368;SDS011;37459;51.416;5.502;2022-12-07T01:30:31;10.65;;;7.47;;
51368;SDS011;37459;51.416;5.502;2022-12-07T01:32:57;10.07;;;7.38;;
51368;SDS011;37459;51.416;5.502;2022-12-07T01:35:24;12.10;;;7.20;;
51368;SDS011;37459;51.416;5.502;2022-12-07T01:37:50;11.25;;;7.32;;
51368;SDS011;37459;51.416;5.502;2022-12-07T01:40:18;9.98;;;6.82;;
51368;SDS011;37459;51.416;5.502;2022-12-07T01:42:45;12.98;;;7.50;;
51368;SDS011;37459;51.416;5.502;2022-12-07T01:48:07;10.25;;;6.35;;
51368;SDS011;37459;51.416;5.502;2022-12-07T01:50:36;12.18;;;7.32;;
51368;SDS011;37459;51.416;5.502;2022-12-07T01:53:05;13.63;;;6.97;;
51368;SDS011;37459;51.416;5.502;2022-12-07T01:55:37;10.68;;;7.40;;
51368;SDS011;37459;51.416;5.502;2022-12-07T01:58:06;12.32;;;7.30;;
51368;SDS011;37459;51.416;5.502;2022-12-07T02:00:34;10.55;;;7.30;;
51368;SDS011;37459;51.416;5.502;2022-12-07T02:03:02;9.10;;;6.82;;
51368;SDS011;37459;51.416;5.502;2022-12-07T02:05:32;11.07;;;7.35;;
51368;SDS011;37459;51.416;5.502;2022-12-07T02:08:00;11.10;;;7.57;;
51368;SDS011;37459;51.416;5.502;2022-12-07T02:10:29;10.63;;;7.60;;
51368;SDS011;37459;51.416;5.502;2022-12-07T02:12:58;12.30;;;7.53;;
51368;SDS011;37459;51.416;5.502;2022-12-07T02:15:28;8.88;;;6.95;;
51368;SDS011;37459;51.416;5.502;2022-12-07T02:18:05;9.93;;;7.18;;
51368;SDS011;37459;51.416;5.502;2022-12-07T02:20:37;14.18;;;7.25;;
51368;SDS011;37459;51.416;5.502;2022-12-07T02:26:18;11.32;;;7.47;;
51368;SDS011;37459;51.416;5.502;2022-12-07T02:29:10;10.15;;;7.40;;
51368;SDS011;37459;51.416;5.502;2022-12-07T02:31:43;11.85;;;7.18;;
51368;SDS011;37459;51.416;5.502;2022-12-07T02:34:14;11.40;;;7.10;;
51368;SDS011;37459;51.416;5.502;2022-12-07T02:36:51;11.82;;;7.70;;
51368;SDS011;37459;51.416;5.502;2022-12-07T02:39:20;11.82;;;7.32;;
51368;SDS011;37459;51.416;5.502;2022-12-07T02:41:55;10.80;;;7.18;;
51368;SDS011;37459;51.416;5.502;2022-12-07T02:44:27;11.60;;;7.20;;
51368;SDS011;37459;51.416;5.502;2022-12-07T02:46:55;10.45;;;7.10;;
51368;SDS011;37459;51.416;5.502;2022-12-07T02:49:25;9.30;;;6.85;;
51368;SDS011;37459;51.416;5.502;2022-12-07T02:52:02;10.30;;;7.30;;
51368;SDS011;37459;51.416;5.502;2022-12-07T02:54:29;11.88;;;6.63;;
51368;SDS011;37459;51.416;5.502;2022-12-07T02:56:57;9.43;;;6.18;;
51368;SDS011;37459;51.416;5.502;2022-12-07T02:59:35;9.13;;;7.05;;
51368;SDS011;37459;51.416;5.502;2022-12-07T03:02:15;12.45;;;7.18;;
51368;SDS011;37459;51.416;5.502;2022-12-07T03:04:52;10.77;;;6.80;;
51368;SDS011;37459;51.416;5.502;2022-12-07T03:07:29;10.85;;;6.63;;
51368;SDS011;37459;51.416;5.502;2022-12-07T03:10:01;11.48;;;6.30;;
51368;SDS011;37459;51.416;5.502;2022-12-07T03:12:35;8.23;;;6.25;;
51368;SDS011;37459;51.416;5.502;2022-12-07T03:15:10;12.07;;;7.07;;
51368;SDS011;37459;51.416;5.502;2022-12-07T03:17:40;8.25;;;6.07;;
51368;SDS011;37459;51.416;5.502;2022-12-07T03:20:13;8.23;;;6.40;;
51368;SDS011;37459;51.416;5.502;2022-12-07T03:22:45;10.52;;;6.53;;
51368;SDS011;37459;51.416;5.502;2022-12-07T03:25:13;8.68;;;6.40;;
51368;SDS011;37459;51.416;5.502;2022-12-07T03:27:44;9.43;;;5.88;;
51368;SDS011;37459;51.416;5.502;2022-12-07T03:30:19;9.10;;;6.80;;
51368;SDS011;37459;51.416;5.502;2022-12-07T03:32:49;7.80;;;6.28;;
51368;SDS011;37459;51.416;5.502;2022-12-07T03:35:20;8.88;;;6.50;;
51368;SDS011;37459;51.416;5.502;2022-12-07T03:37:51;10.23;;;5.90;;
51368;SDS011;37459;51.416;5.502;2022-12-07T03:40:22;8.20;;;5.82;;
51368;SDS011;37459;51.416;5.502;2022-12-07T03:42:54;8.20;;;6.00;;
51368;SDS011;37459;51.416;5.502;2022-12-07T03:45:26;9.60;;;5.70;;
51368;SDS011;37459;51.416;5.502;2022-12-07T03:48:02;9.95;;;5.75;;
51368;SDS011;37459;51.416;5.502;2022-12-07T03:50:36;10.15;;;5.72;;
51368;SDS011;37459;51.416;5.502;2022-12-07T03:53:09;9.48;;;5.95;;
51368;SDS011;37459;51.416;5.502;2022-12-07T03:55:41;15.60;;;6.43;;
51368;SDS011;37459;51.416;5.502;2022-12-07T03:58:11;8.73;;;5.78;;
51368;SDS011;37459;51.416;5.502;2022-12-07T04:00:43;9.23;;;5.43;;
51368;SDS011;37459;51.416;5.502;2022-12-07T04:03:10;9.52;;;5.35;;
51368;SDS011;37459;51.416;5.502;2022-12-07T04:05:37;11.15;;;5.68;;
51368;SDS011;37459;51.416;5.502;2022-12-07T04:08:05;7.95;;;5.28;;
51368;SDS011;37459;51.416;5.502;2022-12-07T04:10:31;8.30;;;5.75;;
51368;SDS011;37459;51.416;5.502;2022-12-07T04:12:58;10.23;;;5.20;;
51368;SDS011;37459;51.416;5.502;2022-12-07T04:15:24;9.30;;;5.35;;
51368;SDS011;37459;51.416;5.502;2022-12-07T04:17:52;10.63;;;5.30;;
51368;SDS011;37459;51.416;5.502;2022-12-07T04:20:20;8.23;;;5.45;;
51368;SDS011;37459;51.416;5.502;2022-12-07T04:22:46;10.45;;;5.60;;
51368;SDS011;37459;51.416;5.502;2022-12-07T04:25:13;8.23;;;5.38;;
51368;SDS011;37459;51.416;5.502;2022-12-07T04:27:40;7.80;;;5.18;;
51368;SDS011;37459;51.416;5.502;2022-12-07T04:30:07;8.77;;;5.13;;
51368;SDS011;37459;51.416;5.502;2022-12-07T04:32:34;10.05;;;5.53;;
51368;SDS011;37459;51.416;5.502;2022-12-07T04:35:03;9.10;;;5.70;;
51368;SDS011;37459;51.416;5.502;2022-12-07T04:37:30;12.02;;;5.53;;
51368;SDS011;37459;51.416;5.502;2022-12-07T04:39:56;11.60;;;5.80;;
51368;SDS011;37459;51.416;5.502;2022-12-07T04:42:23;8.35;;;5.15;;
51368;SDS011;37459;51.416;5.502;2022-12-07T04:44:49;9.63;;;5.50;;
51368;SDS011;37459;51.416;5.502;2022-12-07T04:47:16;10.68;;;6.20;;
51368;SDS011;37459;51.416;5.502;2022-12-07T04:49:43;9.27;;;5.97;;
51368;SDS011;37459;51.416;5.502;2022-12-07T04:52:11;10.23;;;5.50;;
51368;SDS011;37459;51.416;5.502;2022-12-07T04:54:37;10.52;;;5.93;;
51368;SDS011;37459;51.416;5.502;2022-12-07T04:57:04;8.70;;;5.35;;
51368;SDS011;37459;51.416;5.502;2022-12-07T04:59:30;11.98;;;6.10;;
51368;SDS011;37459;51.416;5.502;2022-12-07T05:01:57;8.65;;;5.53;;
51368;SDS011;37459;51.416;5.502;2022-12-07T05:04:23;11.15;;;5.72;;
51368;SDS011;37459;51.416;5.502;2022-12-07T05:06:50;11.10;;;5.85;;
51368;SDS011;37459;51.416;5.502;2022-12-07T05:09:18;8.50;;;5.35;;
51368;SDS011;37459;51.416;5.502;2022-12-07T05:11:44;11.93;;;5.50;;
51368;SDS011;37459;51.416;5.502;2022-12-07T05:14:12;10.13;;;5.70;;
51368;SDS011;37459;51.416;5.502;2022-12-07T05:16:40;9.23;;;5.32;;
51368;SDS011;37459;51.416;5.502;2022-12-07T05:19:07;7.55;;;5.35;;
51368;SDS011;37459;51.416;5.502;2022-12-07T05:21:34;11.10;;;5.53;;
51368;SDS011;37459;51.416;5.502;2022-12-07T05:24:05;12.32;;;5.50;;
51368;SDS011;37459;51.416;5.502;2022-12-07T05:26:34;8.98;;;5.35;;
51368;SDS011;37459;51.416;5.502;2022-12-07T05:29:02;11.25;;;5.50;;
51368;SDS011;37459;51.416;5.502;2022-12-07T05:31:29;13.45;;;5.38;;
51368;SDS011;37459;51.416;5.502;2022-12-07T05:33:56;10.85;;;5.65;;
51368;SDS011;37459;51.416;5.502;2022-12-07T05:36:22;10.57;;;5.70;;
51368;SDS011;37459;51.416;5.502;2022-12-07T05:38:49;10.80;;;5.50;;
51368;SDS011;37459;51.416;5.502;2022-12-07T05:41:16;12.35;;;5.28;;
51368;SDS011;37459;51.416;5.502;2022-12-07T05:46:30;11.38;;;5.80;;
51368;SDS011;37459;51.416;5.502;2022-12-07T05:48:57;8.75;;;5.20;;
51368;SDS011;37459;51.416;5.502;2022-12-07T05:51:23;13.73;;;5.82;;
51368;SDS011;37459;51.416;5.502;2022-12-07T05:53:50;12.43;;;5.70;;
51368;SDS011;37459;51.416;5.502;2022-12-07T05:56:17;8.95;;;5.47;;
51368;SDS011;37459;51.416;5.502;2022-12-07T05:58:43;8.88;;;4.93;;
51368;SDS011;37459;51.416;5.502;2022-12-07T06:01:28;8.45;;;5.00;;
51368;SDS011;37459;51.416;5.502;2022-12-07T06:03:55;9.27;;;5.45;;
51368;SDS011;37459;51.416;5.502;2022-12-07T06:06:22;12.45;;;5.20;;
51368;SDS011;37459;51.416;5.502;2022-12-07T06:08:48;9.68;;;4.97;;
51368;SDS011;37459;51.416;5.502;2022-12-07T06:11:15;10.60;;;4.90;;
51368;SDS011;37459;51.416;5.502;2022-12-07T06:13:59;11.18;;;5.00;;
51368;SDS011;37459;51.416;5.502;2022-12-07T06:16:25;8.63;;;4.38;;
51368;SDS011;37459;51.416;5.502;2022-12-07T06:18:53;6.97;;;4.30;;
51368;SDS011;37459;51.416;5.502;2022-12-07T06:21:20;8.32;;;4.50;;
51368;SDS011;37459;51.416;5.502;2022-12-07T06:23:46;9.10;;;4.38;;
51368;SDS011;37459;51.416;5.502;2022-12-07T06:26:13;6.50;;;4.55;;
51368;SDS011;37459;51.416;5.502;2022-12-07T06:28:39;7.85;;;3.90;;
51368;SDS011;37459;51.416;5.502;2022-12-07T06:31:07;6.82;;;4.20;;
51368;SDS011;37459;51.416;5.502;2022-12-07T06:33:34;11.88;;;6.43;;
51368;SDS011;37459;51.416;5.502;2022-12-07T06:36:02;9.25;;;4.00;;
51368;SDS011;37459;51.416;5.502;2022-12-07T06:38:28;9.30;;;4.28;;
51368;SDS011;37459;51.416;5.502;2022-12-07T06:40:55;9.57;;;4.40;;
51368;SDS011;37459;51.416;5.502;2022-12-07T06:43:22;7.53;;;3.70;;
51368;SDS011;37459;51.416;5.502;2022-12-07T06:45:48;8.70;;;3.75;;
51368;SDS011;37459;51.416;5.502;2022-12-07T06:48:15;7.65;;;3.80;;
51368;SDS011;37459;51.416;5.502;2022-12-07T06:50:43;6.97;;;3.70;;
51368;SDS011;37459;51.416;5.502;2022-12-07T06:53:12;9.52;;;4.07;;
51368;SDS011;37459;51.416;5.502;2022-12-07T06:55:38;9.10;;;3.92;;
51368;SDS011;37459;51.416;5.502;2022-12-07T06:58:05;7.85;;;3.63;;
51368;SDS011;37459;51.416;5.502;2022-12-07T07:00:31;10.82;;;4.47;;
51368;SDS011;37459;51.416;5.502;2022-12-07T07:02:59;6.15;;;3.58;;
51368;SDS011;37459;51.416;5.502;2022-12-07T07:05:27;8.52;;;4.00;;
51368;SDS011;37459;51.416;5.502;2022-12-07T07:07:53;8.95;;;3.88;;
51368;SDS011;37459;51.416;5.502;2022-12-07T07:10:21;7.13;;;3.47;;
51368;SDS011;37459;51.416;5.502;2022-12-07T07:12:48;12.27;;;3.90;;
51368;SDS011;37459;51.416;5.502;2022-12-07T07:15:15;10.05;;;3.70;;
51368;SDS011;37459;51.416;5.502;2022-12-07T07:17:42;13.20;;;7.28;;
51368;SDS011;37459;51.416;5.502;2022-12-07T07:20:09;10.65;;;4.57;;
51368;SDS011;37459;51.416;5.502;2022-12-07T07:22:36;7.57;;;4.07;;
51368;SDS011;37459;51.416;5.502;2022-12-07T07:25:03;11.60;;;4.20;;
51368;SDS011;37459;51.416;5.502;2022-12-07T07:27:31;9.02;;;4.63;;
51368;SDS011;37459;51.416;5.502;2022-12-07T07:29:58;7.60;;;4.13;;
51368;SDS011;37459;51.416;5.502;2022-12-07T07:32:24;9.30;;;4.40;;
51368;SDS011;37459;51.416;5.502;2022-12-07T07:34:51;10.82;;;4.40;;
51368;SDS011;37459;51.416;5.502;2022-12-07T07:37:17;9.52;;;5.05;;
51368;SDS011;37459;51.416;5.502;2022-12-07T07:39:44;14.32;;;5.53;;
51368;SDS011;37459;51.416;5.502;2022-12-07T07:42:10;6.82;;;4.55;;
51368;SDS011;37459;51.416;5.502;2022-12-07T07:44:38;47.22;;;24.88;;
51368;SDS011;37459;51.416;5.502;2022-12-07T07:47:05;13.18;;;7.82;;
51368;SDS011;37459;51.416;5.502;2022-12-07T07:49:31;12.98;;;6.57;;
51368;SDS011;37459;51.416;5.502;2022-12-07T07:51:58;11.85;;;6.18;;
51368;SDS011;37459;51.416;5.502;2022-12-07T07:54:24;9.18;;;6.00;;
51368;SDS011;37459;51.416;5.502;2022-12-07T07:56:51;9.38;;;5.43;;
51368;SDS011;37459;51.416;5.502;2022-12-07T07:59:18;10.15;;;6.18;;
51368;SDS011;37459;51.416;5.502;2022-12-07T08:01:46;10.40;;;6.00;;
51368;SDS011;37459;51.416;5.502;2022-12-07T08:04:13;8.90;;;5.82;;
51368;SDS011;37459;51.416;5.502;2022-12-07T08:06:39;11.35;;;5.70;;
51368;SDS011;37459;51.416;5.502;2022-12-07T08:09:07;8.75;;;5.85;;
51368;SDS011;37459;51.416;5.502;2022-12-07T08:11:34;14.40;;;6.57;;
51368;SDS011;37459;51.416;5.502;2022-12-07T08:14:01;14.65;;;6.80;;
51368;SDS011;37459;51.416;5.502;2022-12-07T08:16:27;13.75;;;6.88;;
51368;SDS011;37459;51.416;5.502;2022-12-07T08:18:55;12.20;;;7.72;;
51368;SDS011;37459;51.416;5.502;2022-12-07T08:21:22;15.35;;;9.60;;
51368;SDS011;37459;51.416;5.502;2022-12-07T08:23:48;20.20;;;10.88;;
51368;SDS011;37459;51.416;5.502;2022-12-07T08:26:18;20.00;;;11.85;;
51368;SDS011;37459;51.416;5.502;2022-12-07T08:28:44;18.13;;;9.68;;
51368;SDS011;37459;51.416;5.502;2022-12-07T08:31:11;18.20;;;9.95;;
51368;SDS011;37459;51.416;5.502;2022-12-07T08:33:39;18.10;;;9.02;;
51368;SDS011;37459;51.416;5.502;2022-12-07T08:36:08;14.68;;;8.77;;
51368;SDS011;37459;51.416;5.502;2022-12-07T08:38:36;15.27;;;8.68;;
51368;SDS011;37459;51.416;5.502;2022-12-07T08:41:04;18.50;;;9.02;;
51368;SDS011;37459;51.416;5.502;2022-12-07T08:43:32;14.68;;;9.27;;
51368;SDS011;37459;51.416;5.502;2022-12-07T08:46:02;16.23;;;8.63;;
51368;SDS011;37459;51.416;5.502;2022-12-07T08:48:33;17.08;;;8.65;;
51368;SDS011;37459;51.416;5.502;2022-12-07T08:51:02;14.70;;;8.63;;
51368;SDS011;37459;51.416;5.502;2022-12-07T08:53:30;13.70;;;8.70;;
51368;SDS011;37459;51.416;5.502;2022-12-07T08:55:57;16.10;;;8.32;;
51368;SDS011;37459;51.416;5.502;2022-12-07T08:58:24;14.60;;;8.02;;
51368;SDS011;37459;51.416;5.502;2022-12-07T09:00:51;15.60;;;9.57;;
51368;SDS011;37459;51.416;5.502;2022-12-07T09:03:18;22.30;;;8.80;;
51368;SDS011;37459;51.416;5.502;2022-12-07T09:05:44;19.08;;;8.63;;
51368;SDS011;37459;51.416;5.502;2022-12-07T09:08:11;17.77;;;8.98;;
51368;SDS011;37459;51.416;5.502;2022-12-07T09:10:39;14.15;;;8.30;;
51368;SDS011;37459;51.416;5.502;2022-12-07T09:13:06;16.50;;;8.48;;
51368;SDS011;37459;51.416;5.502;2022-12-07T09:15:32;15.30;;;8.70;;
51368;SDS011;37459;51.416;5.502;2022-12-07T09:17:59;17.25;;;8.02;;
51368;SDS011;37459;51.416;5.502;2022-12-07T09:20:25;14.95;;;7.85;;
51368;SDS011;37459;51.416;5.502;2022-12-07T09:22:52;15.95;;;7.88;;
51368;SDS011;37459;51.416;5.502;2022-12-07T09:25:18;21.45;;;8.55;;
51368;SDS011;37459;51.416;5.502;2022-12-07T09:27:46;14.68;;;8.35;;
51368;SDS011;37459;51.416;5.502;2022-12-07T09:30:13;15.02;;;8.02;;
51368;SDS011;37459;51.416;5.502;2022-12-07T09:32:40;13.85;;;7.25;;
51368;SDS011;37459;51.416;5.502;2022-12-07T09:35:07;14.32;;;7.45;;
51368;SDS011;37459;51.416;5.502;2022-12-07T09:37:34;12.82;;;6.90;;
51368;SDS011;37459;51.416;5.502;2022-12-07T09:40:01;13.95;;;8.25;;
51368;SDS011;37459;51.416;5.502;2022-12-07T09:42:30;13.10;;;7.53;;
51368;SDS011;37459;51.416;5.502;2022-12-07T09:45:01;14.95;;;8.80;;
51368;SDS011;37459;51.416;5.502;2022-12-07T09:47:30;10.30;;;5.75;;
51368;SDS011;37459;51.416;5.502;2022-12-07T09:50:00;13.63;;;7.50;;
51368;SDS011;37459;51.416;5.502;2022-12-07T09:52:31;11.38;;;6.28;;
51368;SDS011;37459;51.416;5.502;2022-12-07T09:54:58;14.77;;;5.97;;
51368;SDS011;37459;51.416;5.502;2022-12-07T09:57:27;10.98;;;6.05;;
51368;SDS011;37459;51.416;5.502;2022-12-07T09:59:56;10.60;;;6.10;;
51368;SDS011;37459;51.416;5.502;2022-12-07T10:02:33;13.35;;;5.82;;
51368;SDS011;37459;51.416;5.502;2022-12-07T10:05:03;12.15;;;6.45;;
51368;SDS011;37459;51.416;5.502;2022-12-07T10:07:32;11.00;;;6.00;;
51368;SDS011;37459;51.416;5.502;2022-12-07T10:09:58;13.20;;;6.32;;
51368;SDS011;37459;51.416;5.502;2022-12-07T10:12:25;10.68;;;5.85;;
51368;SDS011;37459;51.416;5.502;2022-12-07T10:14:55;10.18;;;6.13;;
51368;SDS011;37459;51.416;5.502;2022-12-07T10:17:29;11.40;;;6.38;;
51368;SDS011;37459;51.416;5.502;2022-12-07T10:20:17;19.33;;;8.85;;
51368;SDS011;37459;51.416;5.502;2022-12-07T10:22:59;16.38;;;8.70;;
51368;SDS011;37459;51.416;5.502;2022-12-07T10:25:28;12.02;;;6.03;;
51368;SDS011;37459;51.416;5.502;2022-12-07T10:27:58;11.27;;;5.38;;
51368;SDS011;37459;51.416;5.502;2022-12-07T10:30:28;10.75;;;4.60;;
51368;SDS011;37459;51.416;5.502;2022-12-07T10:32:57;10.07;;;5.32;;
51368;SDS011;37459;51.416;5.502;2022-12-07T10:35:24;10.88;;;4.40;;
51368;SDS011;37459;51.416;5.502;2022-12-07T10:37:53;13.77;;;5.10;;
51368;SDS011;37459;51.416;5.502;2022-12-07T10:40:28;9.23;;;4.78;;
51368;SDS011;37459;51.416;5.502;2022-12-07T10:43:02;9.48;;;4.40;;
51368;SDS011;37459;51.416;5.502;2022-12-07T10:45:30;10.10;;;4.45;;
51368;SDS011;37459;51.416;5.502;2022-12-07T10:48:00;10.65;;;5.07;;
51368;SDS011;37459;51.416;5.502;2022-12-07T10:50:56;9.43;;;5.22;;
51368;SDS011;37459;51.416;5.502;2022-12-07T10:53:35;10.77;;;4.60;;
51368;SDS011;37459;51.416;5.502;2022-12-07T10:56:27;9.57;;;4.32;;
51368;SDS011;37459;51.416;5.502;2022-12-07T10:59:05;12.27;;;4.95;;
51368;SDS011;37459;51.416;5.502;2022-12-07T11:01:49;10.25;;;4.80;;
51368;SDS011;37459;51.416;5.502;2022-12-07T11:04:24;11.70;;;5.03;;
51368;SDS011;37459;51.416;5.502;2022-12-07T11:06:58;10.45;;;4.70;;
51368;SDS011;37459;51.416;5.502;2022-12-07T11:09:42;20.05;;;9.38;;
51368;SDS011;37459;51.416;5.502;2022-12-07T11:12:21;14.30;;;6.78;;
51368;SDS011;37459;51.416;5.502;2022-12-07T11:15:00;11.73;;;5.85;;
51368;SDS011;37459;51.416;5.502;2022-12-07T11:17:32;12.30;;;5.57;;
51368;SDS011;37459;51.416;5.502;2022-12-07T11:20:14;12.32;;;5.22;;
51368;SDS011;37459;51.416;5.502;2022-12-07T11:22:56;10.35;;;5.40;;
51368;SDS011;37459;51.416;5.502;2022-12-07T11:25:31;11.52;;;4.85;;
51368;SDS011;37459;51.416;5.502;2022-12-07T11:28:08;10.07;;;4.72;;
51368;SDS011;37459;51.416;5.502;2022-12-07T11:30:47;9.05;;;4.70;;
51368;SDS011;37459;51.416;5.502;2022-12-07T11:33:22;12.45;;;4.82;;
51368;SDS011;37459;51.416;5.502;2022-12-07T11:36:00;12.68;;;4.78;;
51368;SDS011;37459;51.416;5.502;2022-12-07T11:38:33;12.40;;;4.67;;
51368;SDS011;37459;51.416;5.502;2022-12-07T11:41:04;10.48;;;4.95;;
51368;SDS011;37459;51.416;5.502;2022-12-07T11:43:41;10.27;;;5.23;;
51368;SDS011;37459;51.416;5.502;2022-12-07T11:46:17;12.38;;;4.78;;
51368;SDS011;37459;51.416;5.502;2022-12-07T11:48:45;12.27;;;4.65;;
51368;SDS011;37459;51.416;5.502;2022-12-07T11:51:18;10.70;;;4.63;;
51368;SDS011;37459;51.416;5.502;2022-12-07T11:53:48;12.25;;;4.88;;
51368;SDS011;37459;51.416;5.502;2022-12-07T11:56:20;12.00;;;4.32;;
51368;SDS011;37459;51.416;5.502;2022-12-07T11:58:49;9.85;;;3.80;;
51368;SDS011;37459;51.416;5.502;2022-12-07T12:01:26;10.75;;;3.60;;
51368;SDS011;37459;51.416;5.502;2022-12-07T12:04:02;8.43;;;3.72;;
51368;SDS011;37459;51.416;5.502;2022-12-07T12:06:41;9.57;;;4.00;;
51368;SDS011;37459;51.416;5.502;2022-12-07T12:09:11;10.52;;;3.67;;
51368;SDS011;37459;51.416;5.502;2022-12-07T12:11:46;9.63;;;3.50;;
51368;SDS011;37459;51.416;5.502;2022-12-07T12:14:33;8.13;;;3.15;;
51368;SDS011;37459;51.416;5.502;2022-12-07T12:20:18;10.02;;;3.13;;
51368;SDS011;37459;51.416;5.502;2022-12-07T12:22:52;11.27;;;3.10;;
51368;SDS011;37459;51.416;5.502;2022-12-07T12:25:25;7.97;;;3.17;;
51368;SDS011;37459;51.416;5.502;2022-12-07T12:27:55;10.70;;;3.40;;
51368;SDS011;37459;51.416;5.502;2022-12-07T12:30:25;9.77;;;2.30;;
51368;SDS011;37459;51.416;5.502;2022-12-07T12:33:01;9.02;;;2.63;;
51368;SDS011;37459;51.416;5.502;2022-12-07T12:35:31;10.85;;;2.40;;
51368;SDS011;37459;51.416;5.502;2022-12-07T12:40:56;7.65;;;2.55;;
51368;SDS011;37459;51.416;5.502;2022-12-07T12:46:36;6.47;;;2.45;;
51368;SDS011;37459;51.416;5.502;2022-12-07T12:55:16;8.02;;;2.53;;
51368;SDS011;37459;51.416;5.502;2022-12-07T12:57:46;9.32;;;2.30;;
51368;SDS011;37459;51.416;5.502;2022-12-07T13:00:33;8.25;;;2.58;;
51368;SDS011;37459;51.416;5.502;2022-12-07T13:03:00;9.27;;;2.10;;
51368;SDS011;37459;51.416;5.502;2022-12-07T13:05:27;6.28;;;1.83;;
51368;SDS011;37459;51.416;5.502;2022-12-07T13:07:56;6.07;;;2.03;;
51368;SDS011;37459;51.416;5.502;2022-12-07T13:10:36;5.70;;;1.95;;
51368;SDS011;37459;51.416;5.502;2022-12-07T13:18:59;6.70;;;1.85;;
51368;SDS011;37459;51.416;5.502;2022-12-07T13:21:40;8.82;;;1.80;;
51368;SDS011;37459;51.416;5.502;2022-12-07T13:24:08;5.90;;;1.75;;
51368;SDS011;37459;51.416;5.502;2022-12-07T13:26:41;8.82;;;1.90;;
51368;SDS011;37459;51.416;5.502;2022-12-07T13:29:11;6.72;;;2.20;;
51368;SDS011;37459;51.416;5.502;2022-12-07T13:31:39;4.45;;;1.50;;
51368;SDS011;37459;51.416;5.502;2022-12-07T13:36:55;7.50;;;2.28;;
51368;SDS011;37459;51.416;5.502;2022-12-07T13:39:23;6.05;;;1.90;;
51368;SDS011;37459;51.416;5.502;2022-12-07T13:41:53;6.28;;;1.92;;
51368;SDS011;37459;51.416;5.502;2022-12-07T13:44:22;11.15;;;2.50;;
51368;SDS011;37459;51.416;5.502;2022-12-07T13:46:51;8.38;;;2.28;;
51368;SDS011;37459;51.416;5.502;2022-12-07T13:49:22;9.43;;;2.17;;
51368;SDS011;37459;51.416;5.502;2022-12-07T13:51:50;5.40;;;1.85;;
51368;SDS011;37459;51.416;5.502;2022-12-07T13:54:17;5.22;;;2.00;;
51368;SDS011;37459;51.416;5.502;2022-12-07T13:56:47;5.75;;;2.13;;
51368;SDS011;37459;51.416;5.502;2022-12-07T13:59:18;7.78;;;2.00;;
51368;SDS011;37459;51.416;5.502;2022-12-07T14:01:47;6.10;;;1.98;;
51368;SDS011;37459;51.416;5.502;2022-12-07T14:04:18;5.13;;;1.90;;
51368;SDS011;37459;51.416;5.502;2022-12-07T14:06:55;6.03;;;1.92;;
51368;SDS011;37459;51.416;5.502;2022-12-07T14:09:22;5.90;;;2.00;;
51368;SDS011;37459;51.416;5.502;2022-12-07T14:11:51;9.07;;;2.05;;
51368;SDS011;37459;51.416;5.502;2022-12-07T14:14:21;5.00;;;2.00;;
51368;SDS011;37459;51.416;5.502;2022-12-07T14:16:57;7.57;;;2.17;;
51368;SDS011;37459;51.416;5.502;2022-12-07T14:19:40;6.35;;;2.03;;
51368;SDS011;37459;51.416;5.502;2022-12-07T14:22:09;7.22;;;2.22;;
51368;SDS011;37459;51.416;5.502;2022-12-07T14:24:45;6.15;;;2.53;;
51368;SDS011;37459;51.416;5.502;2022-12-07T14:27:18;6.03;;;2.38;;
51368;SDS011;37459;51.416;5.502;2022-12-07T14:29:47;6.53;;;2.58;;
51368;SDS011;37459;51.416;5.502;2022-12-07T14:32:18;6.85;;;2.88;;
51368;SDS011;37459;51.416;5.502;2022-12-07T14:34:57;5.40;;;2.35;;
51368;SDS011;37459;51.416;5.502;2022-12-07T14:37:26;5.63;;;2.50;;
51368;SDS011;37459;51.416;5.502;2022-12-07T14:39:54;6.50;;;2.60;;
51368;SDS011;37459;51.416;5.502;2022-12-07T14:42:20;6.85;;;2.67;;
51368;SDS011;37459;51.416;5.502;2022-12-07T14:44:51;5.60;;;2.70;;
51368;SDS011;37459;51.416;5.502;2022-12-07T14:47:18;7.43;;;2.70;;
51368;SDS011;37459;51.416;5.502;2022-12-07T14:49:44;8.88;;;2.70;;
51368;SDS011;37459;51.416;5.502;2022-12-07T14:52:12;11.68;;;3.22;;
51368;SDS011;37459;51.416;5.502;2022-12-07T14:54:41;8.40;;;2.95;;
51368;SDS011;37459;51.416;5.502;2022-12-07T14:57:09;7.30;;;2.72;;
51368;SDS011;37459;51.416;5.502;2022-12-07T14:59:36;6.20;;;2.58;;
51368;SDS011;37459;51.416;5.502;2022-12-07T15:02:04;9.35;;;2.72;;
51368;SDS011;37459;51.416;5.502;2022-12-07T15:04:30;9.57;;;2.70;;
51368;SDS011;37459;51.416;5.502;2022-12-07T15:07:04;7.70;;;2.58;;
51368;SDS011;37459;51.416;5.502;2022-12-07T15:09:32;10.55;;;2.88;;
51368;SDS011;37459;51.416;5.502;2022-12-07T15:11:58;6.20;;;3.00;;
51368;SDS011;37459;51.416;5.502;2022-12-07T15:14:25;8.20;;;3.28;;
51368;SDS011;37459;51.416;5.502;2022-12-07T15:16:51;6.13;;;3.17;;
51368;SDS011;37459;51.416;5.502;2022-12-07T15:19:20;7.65;;;2.92;;
51368;SDS011;37459;51.416;5.502;2022-12-07T15:21:50;59.78;;;4.93;;
51368;SDS011;37459;51.416;5.502;2022-12-07T15:24:17;30.65;;;3.25;;
51368;SDS011;37459;51.416;5.502;2022-12-07T15:26:43;31.45;;;3.38;;
51368;SDS011;37459;51.416;5.502;2022-12-07T15:29:10;8.70;;;2.17;;